sensor_id;sensor_type;location;lat;lon;timestamp;P1;durP1;ratioP1;P2;durP2;ratioP2
15451;SDS011;7827;53.594;9.938;2023-03-14T00:02:14;13.50;;;4.07;;
15451;SDS011;7827;53.594;9.938;2023-03-14T00:04:42;7.65;;;3.47;;
15451;SDS011;7827;53.594;9.938;2023-03-14T00:07:12;9.48;;;3.80;;
15451;SDS011;7827;53.594;9.938;2023-03-14T00:09:41;9.23;;;3.92;;
15451;SDS011;7827;53.594;9.938;2023-03-14T00:12:10;8.30;;;4.35;;
15451;SDS011;7827;53.594;9.938;2023-03-14T00:14:40;8.45;;;3.75;;
15451;SDS011;7827;53.594;9.938;2023-03-14T00:17:10;6.40;;;3.47;;
15451;SDS011;7827;53.594;9.938;2023-03-14T00:19:40;6.40;;;3.55;;
15451;SDS011;7827;53.594;9.938;2023-03-14T00:22:08;6.75;;;3.88;;
15451;SDS011;7827;53.594;9.938;2023-03-14T00:24:38;8.88;;;4.20;;
15451;SDS011;7827;53.594;9.938;2023-03-14T00:27:06;7.50;;;3.70;;
15451;SDS011;7827;53.594;9.938;2023-03-14T00:29:35;10.05;;;4.03;;
15451;SDS011;7827;53.594;9.938;2023-03-14T00:32:03;9.70;;;3.95;;
15451;SDS011;7827;53.594;9.938;2023-03-14T00:34:32;7.35;;;3.60;;
15451;SDS011;7827;53.594;9.938;2023-03-14T00:37:01;7.38;;;3.80;;
15451;SDS011;7827;53.594;9.938;2023-03-14T00:39:29;8.73;;;3.42;;
15451;SDS011;7827;53.594;9.938;2023-03-14T00:41:59;9.48;;;3.83;;
15451;SDS011;7827;53.594;9.938;2023-03-14T00:44:28;8.38;;;3.65;;
15451;SDS011;7827;53.594;9.938;2023-03-14T00:46:56;9.90;;;3.97;;
15451;SDS011;7827;53.594;9.938;2023-03-14T00:49:25;11.38;;;4.13;;
15451;SDS011;7827;53.594;9.938;2023-03-14T00:51:54;9.35;;;3.65;;
15451;SDS011;7827;53.594;9.938;2023-03-14T00:54:22;8.57;;;3.90;;
15451;SDS011;7827;53.594;9.938;2023-03-14T00:56:51;12.35;;;4.13;;
15451;SDS011;7827;53.594;9.938;2023-03-14T00:59:20;12.45;;;3.83;;
15451;SDS011;7827;53.594;9.938;2023-03-14T01:02:03;8.70;;;3.45;;
15451;SDS011;7827;53.594;9.938;2023-03-14T01:04:31;10.52;;;3.88;;
15451;SDS011;7827;53.594;9.938;2023-03-14T01:07:01;11.15;;;3.45;;
15451;SDS011;7827;53.594;9.938;2023-03-14T01:09:30;13.82;;;3.58;;
15451;SDS011;7827;53.594;9.938;2023-03-14T01:11:59;9.75;;;4.00;;
15451;SDS011;7827;53.594;9.938;2023-03-14T01:14:29;12.48;;;3.88;;
15451;SDS011;7827;53.594;9.938;2023-03-14T01:16:57;8.52;;;4.13;;
15451;SDS011;7827;53.594;9.938;2023-03-14T01:19:27;12.07;;;4.03;;
15451;SDS011;7827;53.594;9.938;2023-03-14T01:21:58;6.50;;;3.30;;
15451;SDS011;7827;53.594;9.938;2023-03-14T01:24:26;12.27;;;3.80;;
15451;SDS011;7827;53.594;9.938;2023-03-14T01:26:55;8.05;;;3.53;;
15451;SDS011;7827;53.594;9.938;2023-03-14T01:29:25;7.47;;;3.60;;
15451;SDS011;7827;53.594;9.938;2023-03-14T01:31:54;11.65;;;5.03;;
15451;SDS011;7827;53.594;9.938;2023-03-14T01:34:23;7.55;;;3.63;;
15451;SDS011;7827;53.594;9.938;2023-03-14T01:36:51;10.80;;;3.35;;
15451;SDS011;7827;53.594;9.938;2023-03-14T01:39:20;7.65;;;3.45;;
15451;SDS011;7827;53.594;9.938;2023-03-14T01:41:49;12.40;;;4.05;;
15451;SDS011;7827;53.594;9.938;2023-03-14T01:44:17;6.57;;;3.28;;
15451;SDS011;7827;53.594;9.938;2023-03-14T01:46:45;9.10;;;3.58;;
15451;SDS011;7827;53.594;9.938;2023-03-14T01:49:22;10.45;;;3.75;;
15451;SDS011;7827;53.594;9.938;2023-03-14T01:52:06;11.88;;;4.35;;
15451;SDS011;7827;53.594;9.938;2023-03-14T01:54:40;8.00;;;3.85;;
15451;SDS011;7827;53.594;9.938;2023-03-14T01:57:12;6.72;;;3.50;;
15451;SDS011;7827;53.594;9.938;2023-03-14T01:59:46;10.70;;;4.60;;
15451;SDS011;7827;53.594;9.938;2023-03-14T02:02:21;6.60;;;3.15;;
15451;SDS011;7827;53.594;9.938;2023-03-14T02:04:55;9.52;;;3.75;;
15451;SDS011;7827;53.594;9.938;2023-03-14T02:07:32;9.23;;;3.85;;
15451;SDS011;7827;53.594;9.938;2023-03-14T02:10:12;7.22;;;3.53;;
15451;SDS011;7827;53.594;9.938;2023-03-14T02:12:45;8.75;;;3.80;;
15451;SDS011;7827;53.594;9.938;2023-03-14T02:15:26;9.23;;;4.40;;
15451;SDS011;7827;53.594;9.938;2023-03-14T02:18:10;9.60;;;3.70;;
15451;SDS011;7827;53.594;9.938;2023-03-14T02:20:49;10.60;;;4.20;;
15451;SDS011;7827;53.594;9.938;2023-03-14T02:23:27;10.65;;;3.85;;
15451;SDS011;7827;53.594;9.938;2023-03-14T02:26:10;10.35;;;3.65;;
15451;SDS011;7827;53.594;9.938;2023-03-14T02:28:45;12.18;;;4.20;;
15451;SDS011;7827;53.594;9.938;2023-03-14T02:31:15;10.80;;;4.20;;
15451;SDS011;7827;53.594;9.938;2023-03-14T02:33:44;9.27;;;3.83;;
15451;SDS011;7827;53.594;9.938;2023-03-14T02:36:13;9.85;;;3.92;;
15451;SDS011;7827;53.594;9.938;2023-03-14T02:38:44;10.13;;;4.25;;
15451;SDS011;7827;53.594;9.938;2023-03-14T02:41:20;5.45;;;3.85;;
15451;SDS011;7827;53.594;9.938;2023-03-14T02:43:59;6.63;;;3.65;;
15451;SDS011;7827;53.594;9.938;2023-03-14T02:46:29;8.80;;;3.60;;
15451;SDS011;7827;53.594;9.938;2023-03-14T02:49:00;9.30;;;5.55;;
15451;SDS011;7827;53.594;9.938;2023-03-14T02:51:32;9.57;;;4.30;;
15451;SDS011;7827;53.594;9.938;2023-03-14T02:54:02;9.27;;;4.50;;
15451;SDS011;7827;53.594;9.938;2023-03-14T02:56:31;6.60;;;3.70;;
15451;SDS011;7827;53.594;9.938;2023-03-14T02:59:03;8.90;;;4.10;;
15451;SDS011;7827;53.594;9.938;2023-03-14T03:01:51;9.95;;;4.78;;
15451;SDS011;7827;53.594;9.938;2023-03-14T03:04:19;11.10;;;4.32;;
15451;SDS011;7827;53.594;9.938;2023-03-14T03:06:48;9.93;;;4.20;;
15451;SDS011;7827;53.594;9.938;2023-03-14T03:09:16;10.68;;;4.15;;
15451;SDS011;7827;53.594;9.938;2023-03-14T03:11:45;7.82;;;4.60;;
15451;SDS011;7827;53.594;9.938;2023-03-14T03:14:20;11.68;;;4.60;;
15451;SDS011;7827;53.594;9.938;2023-03-14T03:16:49;11.35;;;4.00;;
15451;SDS011;7827;53.594;9.938;2023-03-14T03:19:17;6.22;;;3.83;;
15451;SDS011;7827;53.594;9.938;2023-03-14T03:21:46;8.95;;;4.38;;
15451;SDS011;7827;53.594;9.938;2023-03-14T03:24:15;12.07;;;4.68;;
15451;SDS011;7827;53.594;9.938;2023-03-14T03:26:43;6.85;;;4.20;;
15451;SDS011;7827;53.594;9.938;2023-03-14T03:29:12;12.05;;;4.85;;
15451;SDS011;7827;53.594;9.938;2023-03-14T03:31:42;7.75;;;3.97;;
15451;SDS011;7827;53.594;9.938;2023-03-14T03:34:12;14.35;;;4.78;;
15451;SDS011;7827;53.594;9.938;2023-03-14T03:36:41;8.95;;;4.13;;
15451;SDS011;7827;53.594;9.938;2023-03-14T03:39:11;9.52;;;4.32;;
15451;SDS011;7827;53.594;9.938;2023-03-14T03:41:39;10.00;;;4.28;;
15451;SDS011;7827;53.594;9.938;2023-03-14T03:44:09;7.03;;;3.67;;
15451;SDS011;7827;53.594;9.938;2023-03-14T03:46:39;7.90;;;3.70;;
15451;SDS011;7827;53.594;9.938;2023-03-14T03:49:09;10.68;;;4.30;;
15451;SDS011;7827;53.594;9.938;2023-03-14T03:51:39;10.95;;;4.10;;
15451;SDS011;7827;53.594;9.938;2023-03-14T03:54:08;8.07;;;4.25;;
15451;SDS011;7827;53.594;9.938;2023-03-14T03:56:37;6.65;;;3.83;;
15451;SDS011;7827;53.594;9.938;2023-03-14T03:59:06;10.73;;;4.10;;
15451;SDS011;7827;53.594;9.938;2023-03-14T04:01:34;8.18;;;4.15;;
15451;SDS011;7827;53.594;9.938;2023-03-14T04:04:04;9.15;;;3.78;;
15451;SDS011;7827;53.594;9.938;2023-03-14T04:06:33;10.05;;;4.72;;
15451;SDS011;7827;53.594;9.938;2023-03-14T04:09:01;8.88;;;3.92;;
15451;SDS011;7827;53.594;9.938;2023-03-14T04:11:43;10.55;;;4.38;;
15451;SDS011;7827;53.594;9.938;2023-03-14T04:14:20;9.13;;;3.85;;
15451;SDS011;7827;53.594;9.938;2023-03-14T04:17:00;12.60;;;4.20;;
15451;SDS011;7827;53.594;9.938;2023-03-14T04:19:30;10.50;;;4.40;;
15451;SDS011;7827;53.594;9.938;2023-03-14T04:21:59;8.48;;;4.03;;
15451;SDS011;7827;53.594;9.938;2023-03-14T04:24:32;9.70;;;4.40;;
15451;SDS011;7827;53.594;9.938;2023-03-14T04:27:01;8.57;;;4.28;;
15451;SDS011;7827;53.594;9.938;2023-03-14T04:29:31;11.35;;;4.45;;
15451;SDS011;7827;53.594;9.938;2023-03-14T04:32:00;12.25;;;4.07;;
15451;SDS011;7827;53.594;9.938;2023-03-14T04:34:28;10.25;;;4.20;;
15451;SDS011;7827;53.594;9.938;2023-03-14T04:36:58;9.88;;;4.32;;
15451;SDS011;7827;53.594;9.938;2023-03-14T04:39:33;11.52;;;4.47;;
15451;SDS011;7827;53.594;9.938;2023-03-14T04:42:09;10.40;;;4.18;;
15451;SDS011;7827;53.594;9.938;2023-03-14T04:44:38;7.38;;;4.32;;
15451;SDS011;7827;53.594;9.938;2023-03-14T04:47:07;7.22;;;4.43;;
15451;SDS011;7827;53.594;9.938;2023-03-14T04:49:37;11.55;;;4.85;;
15451;SDS011;7827;53.594;9.938;2023-03-14T04:52:09;9.60;;;4.90;;
15451;SDS011;7827;53.594;9.938;2023-03-14T04:54:37;10.35;;;4.38;;
15451;SDS011;7827;53.594;9.938;2023-03-14T04:57:06;11.10;;;4.80;;
15451;SDS011;7827;53.594;9.938;2023-03-14T04:59:36;5.18;;;2.17;;
15451;SDS011;7827;53.594;9.938;2023-03-14T05:02:37;3.85;;;2.13;;
15451;SDS011;7827;53.594;9.938;2023-03-14T05:05:29;3.50;;;2.28;;
15451;SDS011;7827;53.594;9.938;2023-03-14T05:08:33;6.68;;;2.53;;
15451;SDS011;7827;53.594;9.938;2023-03-14T05:11:10;4.32;;;2.10;;
15451;SDS011;7827;53.594;9.938;2023-03-14T05:13:53;3.38;;;1.80;;
15451;SDS011;7827;53.594;9.938;2023-03-14T05:16:49;3.63;;;2.30;;
15451;SDS011;7827;53.594;9.938;2023-03-14T05:19:35;2.72;;;2.38;;
15451;SDS011;7827;53.594;9.938;2023-03-14T05:22:20;3.60;;;2.30;;
15451;SDS011;7827;53.594;9.938;2023-03-14T05:24:59;5.53;;;2.92;;
15451;SDS011;7827;53.594;9.938;2023-03-14T05:27:49;5.82;;;2.80;;
15451;SDS011;7827;53.594;9.938;2023-03-14T05:30:39;5.82;;;2.95;;
15451;SDS011;7827;53.594;9.938;2023-03-14T05:33:41;7.75;;;3.30;;
15451;SDS011;7827;53.594;9.938;2023-03-14T05:36:33;5.57;;;3.38;;
15451;SDS011;7827;53.594;9.938;2023-03-14T05:39:17;7.17;;;3.60;;
15451;SDS011;7827;53.594;9.938;2023-03-14T05:41:55;6.17;;;3.80;;
15451;SDS011;7827;53.594;9.938;2023-03-14T05:44:43;6.23;;;3.80;;
15451;SDS011;7827;53.594;9.938;2023-03-14T05:47:39;8.93;;;4.57;;
15451;SDS011;7827;53.594;9.938;2023-03-14T05:50:34;7.28;;;4.50;;
15451;SDS011;7827;53.594;9.938;2023-03-14T05:53:35;8.45;;;4.43;;
15451;SDS011;7827;53.594;9.938;2023-03-14T05:56:23;7.53;;;5.10;;
15451;SDS011;7827;53.594;9.938;2023-03-14T05:59:17;9.07;;;5.00;;
15451;SDS011;7827;53.594;9.938;2023-03-14T06:02:04;10.38;;;5.47;;
15451;SDS011;7827;53.594;9.938;2023-03-14T06:04:43;11.90;;;6.18;;
15451;SDS011;7827;53.594;9.938;2023-03-14T06:07:11;11.00;;;6.20;;
15451;SDS011;7827;53.594;9.938;2023-03-14T06:09:41;11.60;;;6.10;;
15451;SDS011;7827;53.594;9.938;2023-03-14T06:12:11;11.93;;;6.78;;
15451;SDS011;7827;53.594;9.938;2023-03-14T06:14:42;10.93;;;7.30;;
15451;SDS011;7827;53.594;9.938;2023-03-14T06:17:11;11.45;;;7.18;;
15451;SDS011;7827;53.594;9.938;2023-03-14T06:19:48;13.93;;;6.78;;
15451;SDS011;7827;53.594;9.938;2023-03-14T06:22:16;10.40;;;7.00;;
15451;SDS011;7827;53.594;9.938;2023-03-14T06:24:46;14.07;;;7.60;;
15451;SDS011;7827;53.594;9.938;2023-03-14T06:27:17;11.50;;;6.90;;
15451;SDS011;7827;53.594;9.938;2023-03-14T06:29:46;19.17;;;7.40;;
15451;SDS011;7827;53.594;9.938;2023-03-14T06:32:15;13.57;;;7.95;;
15451;SDS011;7827;53.594;9.938;2023-03-14T06:34:45;15.43;;;7.63;;
15451;SDS011;7827;53.594;9.938;2023-03-14T06:37:13;11.73;;;7.53;;
15451;SDS011;7827;53.594;9.938;2023-03-14T06:39:43;13.23;;;7.53;;
15451;SDS011;7827;53.594;9.938;2023-03-14T06:42:23;17.27;;;7.73;;
15451;SDS011;7827;53.594;9.938;2023-03-14T06:44:53;13.90;;;7.97;;
15451;SDS011;7827;53.594;9.938;2023-03-14T06:47:23;13.23;;;7.30;;
15451;SDS011;7827;53.594;9.938;2023-03-14T06:49:51;11.07;;;6.65;;
15451;SDS011;7827;53.594;9.938;2023-03-14T06:52:21;9.15;;;7.60;;
15451;SDS011;7827;53.594;9.938;2023-03-14T06:54:49;13.73;;;7.95;;
15451;SDS011;7827;53.594;9.938;2023-03-14T06:57:20;12.03;;;7.57;;
15451;SDS011;7827;53.594;9.938;2023-03-14T06:59:50;14.00;;;6.70;;
15451;SDS011;7827;53.594;9.938;2023-03-14T07:02:19;8.85;;;6.15;;
15451;SDS011;7827;53.594;9.938;2023-03-14T07:05:07;16.95;;;6.43;;
15451;SDS011;7827;53.594;9.938;2023-03-14T07:07:37;15.30;;;6.32;;
15451;SDS011;7827;53.594;9.938;2023-03-14T07:10:06;14.20;;;5.97;;
15451;SDS011;7827;53.594;9.938;2023-03-14T07:12:35;11.48;;;5.30;;
15451;SDS011;7827;53.594;9.938;2023-03-14T07:15:06;16.02;;;5.05;;
15451;SDS011;7827;53.594;9.938;2023-03-14T07:17:44;11.35;;;4.35;;
15451;SDS011;7827;53.594;9.938;2023-03-14T07:20:14;8.15;;;3.92;;
15451;SDS011;7827;53.594;9.938;2023-03-14T07:22:43;8.57;;;4.53;;
15451;SDS011;7827;53.594;9.938;2023-03-14T07:25:11;10.63;;;3.95;;
15451;SDS011;7827;53.594;9.938;2023-03-14T07:27:40;7.78;;;3.42;;
15451;SDS011;7827;53.594;9.938;2023-03-14T07:30:13;11.30;;;3.60;;
15451;SDS011;7827;53.594;9.938;2023-03-14T07:32:42;8.75;;;3.85;;
15451;SDS011;7827;53.594;9.938;2023-03-14T07:35:12;9.50;;;3.13;;
15451;SDS011;7827;53.594;9.938;2023-03-14T07:37:41;12.38;;;3.15;;
15451;SDS011;7827;53.594;9.938;2023-03-14T07:40:12;13.98;;;3.15;;
15451;SDS011;7827;53.594;9.938;2023-03-14T07:42:41;10.37;;;3.93;;
15451;SDS011;7827;53.594;9.938;2023-03-14T07:45:17;8.02;;;3.67;;
15451;SDS011;7827;53.594;9.938;2023-03-14T07:47:46;9.55;;;3.85;;
15451;SDS011;7827;53.594;9.938;2023-03-14T07:50:14;10.85;;;3.72;;
15451;SDS011;7827;53.594;9.938;2023-03-14T07:52:44;16.88;;;4.15;;
15451;SDS011;7827;53.594;9.938;2023-03-14T07:55:12;9.25;;;4.07;;
15451;SDS011;7827;53.594;9.938;2023-03-14T07:57:40;10.10;;;4.07;;
15451;SDS011;7827;53.594;9.938;2023-03-14T08:00:09;10.73;;;3.85;;
15451;SDS011;7827;53.594;9.938;2023-03-14T08:02:43;7.68;;;3.65;;
15451;SDS011;7827;53.594;9.938;2023-03-14T08:05:11;8.95;;;3.72;;
15451;SDS011;7827;53.594;9.938;2023-03-14T08:07:39;6.97;;;3.60;;
15451;SDS011;7827;53.594;9.938;2023-03-14T08:10:08;11.35;;;3.50;;
15451;SDS011;7827;53.594;9.938;2023-03-14T08:12:39;8.07;;;3.10;;
15451;SDS011;7827;53.594;9.938;2023-03-14T08:15:08;6.53;;;3.00;;
15451;SDS011;7827;53.594;9.938;2023-03-14T08:17:37;7.60;;;2.72;;
15451;SDS011;7827;53.594;9.938;2023-03-14T08:20:08;4.68;;;2.65;;
15451;SDS011;7827;53.594;9.938;2023-03-14T08:22:39;7.05;;;2.80;;
15451;SDS011;7827;53.594;9.938;2023-03-14T08:25:08;5.35;;;2.50;;
15451;SDS011;7827;53.594;9.938;2023-03-14T08:27:36;6.50;;;3.03;;
15451;SDS011;7827;53.594;9.938;2023-03-14T08:30:06;6.65;;;2.83;;
15451;SDS011;7827;53.594;9.938;2023-03-14T08:32:36;7.75;;;2.85;;
15451;SDS011;7827;53.594;9.938;2023-03-14T08:35:05;6.72;;;2.60;;
15451;SDS011;7827;53.594;9.938;2023-03-14T08:37:36;7.35;;;3.45;;
15451;SDS011;7827;53.594;9.938;2023-03-14T08:40:05;3.67;;;2.53;;
15451;SDS011;7827;53.594;9.938;2023-03-14T08:42:37;6.65;;;2.97;;
15451;SDS011;7827;53.594;9.938;2023-03-14T08:45:06;5.18;;;3.03;;
15451;SDS011;7827;53.594;9.938;2023-03-14T08:47:38;7.20;;;3.00;;
15451;SDS011;7827;53.594;9.938;2023-03-14T08:50:08;9.00;;;4.20;;
15451;SDS011;7827;53.594;9.938;2023-03-14T08:52:42;8.02;;;3.75;;
15451;SDS011;7827;53.594;9.938;2023-03-14T08:55:10;7.70;;;3.03;;
15451;SDS011;7827;53.594;9.938;2023-03-14T08:57:39;7.63;;;3.65;;
15451;SDS011;7827;53.594;9.938;2023-03-14T09:00:08;6.75;;;3.65;;
15451;SDS011;7827;53.594;9.938;2023-03-14T09:02:41;8.25;;;3.90;;
15451;SDS011;7827;53.594;9.938;2023-03-14T09:05:12;6.20;;;3.80;;
15451;SDS011;7827;53.594;9.938;2023-03-14T09:07:41;7.53;;;4.32;;
15451;SDS011;7827;53.594;9.938;2023-03-14T09:10:10;8.93;;;4.25;;
15451;SDS011;7827;53.594;9.938;2023-03-14T09:12:38;9.82;;;4.10;;
15451;SDS011;7827;53.594;9.938;2023-03-14T09:15:07;8.15;;;4.18;;
15451;SDS011;7827;53.594;9.938;2023-03-14T09:17:37;12.55;;;4.45;;
15451;SDS011;7827;53.594;9.938;2023-03-14T09:20:06;11.15;;;4.65;;
15451;SDS011;7827;53.594;9.938;2023-03-14T09:22:37;9.70;;;4.63;;
15451;SDS011;7827;53.594;9.938;2023-03-14T09:25:06;7.88;;;3.95;;
15451;SDS011;7827;53.594;9.938;2023-03-14T09:27:36;10.10;;;4.90;;
15451;SDS011;7827;53.594;9.938;2023-03-14T09:30:05;11.90;;;4.80;;
15451;SDS011;7827;53.594;9.938;2023-03-14T09:32:34;12.07;;;5.07;;
15451;SDS011;7827;53.594;9.938;2023-03-14T09:35:03;6.45;;;3.78;;
15451;SDS011;7827;53.594;9.938;2023-03-14T09:37:32;10.98;;;4.68;;
15451;SDS011;7827;53.594;9.938;2023-03-14T09:40:02;12.98;;;4.93;;
15451;SDS011;7827;53.594;9.938;2023-03-14T09:42:36;12.02;;;4.95;;
15451;SDS011;7827;53.594;9.938;2023-03-14T09:45:09;14.75;;;4.60;;
15451;SDS011;7827;53.594;9.938;2023-03-14T09:47:44;7.63;;;4.10;;
15451;SDS011;7827;53.594;9.938;2023-03-14T09:50:25;4.13;;;2.35;;
15451;SDS011;7827;53.594;9.938;2023-03-14T09:53:02;1.45;;;1.25;;
15451;SDS011;7827;53.594;9.938;2023-03-14T09:55:38;2.70;;;1.40;;
15451;SDS011;7827;53.594;9.938;2023-03-14T09:58:10;1.80;;;1.70;;
15451;SDS011;7827;53.594;9.938;2023-03-14T10:00:42;1.97;;;1.70;;
15451;SDS011;7827;53.594;9.938;2023-03-14T10:06:01;4.00;;;2.20;;
15451;SDS011;7827;53.594;9.938;2023-03-14T10:08:39;2.80;;;1.63;;
15451;SDS011;7827;53.594;9.938;2023-03-14T10:11:13;5.30;;;2.30;;
15451;SDS011;7827;53.594;9.938;2023-03-14T10:13:50;6.23;;;2.07;;
15451;SDS011;7827;53.594;9.938;2023-03-14T10:16:35;5.87;;;2.17;;
15451;SDS011;7827;53.594;9.938;2023-03-14T10:19:10;4.37;;;2.00;;
15451;SDS011;7827;53.594;9.938;2023-03-14T10:21:42;5.83;;;2.07;;
15451;SDS011;7827;53.594;9.938;2023-03-14T10:24:19;2.97;;;1.60;;
15451;SDS011;7827;53.594;9.938;2023-03-14T10:26:53;2.83;;;1.60;;
15451;SDS011;7827;53.594;9.938;2023-03-14T10:29:28;2.60;;;1.47;;
15451;SDS011;7827;53.594;9.938;2023-03-14T10:31:58;1.30;;;1.20;;
15451;SDS011;7827;53.594;9.938;2023-03-14T10:34:30;2.10;;;1.50;;
15451;SDS011;7827;53.594;9.938;2023-03-14T10:37:05;3.07;;;1.30;;
15451;SDS011;7827;53.594;9.938;2023-03-14T10:39:45;1.43;;;1.33;;
15451;SDS011;7827;53.594;9.938;2023-03-14T10:42:20;2.17;;;1.07;;
15451;SDS011;7827;53.594;9.938;2023-03-14T10:44:56;1.83;;;1.10;;
15451;SDS011;7827;53.594;9.938;2023-03-14T10:47:28;2.10;;;1.00;;
15451;SDS011;7827;53.594;9.938;2023-03-14T10:50:18;1.37;;;1.00;;
15451;SDS011;7827;53.594;9.938;2023-03-14T10:52:54;1.00;;;1.00;;
15451;SDS011;7827;53.594;9.938;2023-03-14T10:55:32;1.20;;;1.10;;
15451;SDS011;7827;53.594;9.938;2023-03-14T10:58:23;1.10;;;1.00;;
15451;SDS011;7827;53.594;9.938;2023-03-14T11:00:58;0.90;;;0.90;;
15451;SDS011;7827;53.594;9.938;2023-03-14T11:03:44;1.33;;;1.10;;
15451;SDS011;7827;53.594;9.938;2023-03-14T11:06:22;2.00;;;1.10;;
15451;SDS011;7827;53.594;9.938;2023-03-14T11:09:00;1.33;;;1.20;;
15451;SDS011;7827;53.594;9.938;2023-03-14T11:11:37;1.83;;;1.00;;
15451;SDS011;7827;53.594;9.938;2023-03-14T11:14:18;0.90;;;0.90;;
15451;SDS011;7827;53.594;9.938;2023-03-14T11:16:57;1.90;;;1.17;;
15451;SDS011;7827;53.594;9.938;2023-03-14T11:19:38;2.17;;;1.10;;
15451;SDS011;7827;53.594;9.938;2023-03-14T11:22:24;6.93;;;1.23;;
15451;SDS011;7827;53.594;9.938;2023-03-14T11:25:06;2.73;;;1.37;;
15451;SDS011;7827;53.594;9.938;2023-03-14T11:27:51;3.40;;;1.40;;
15451;SDS011;7827;53.594;9.938;2023-03-14T11:30:35;2.77;;;1.40;;
15451;SDS011;7827;53.594;9.938;2023-03-14T11:33:14;2.93;;;1.80;;
15451;SDS011;7827;53.594;9.938;2023-03-14T11:35:45;8.80;;;1.80;;
15451;SDS011;7827;53.594;9.938;2023-03-14T11:38:27;4.20;;;1.67;;
15451;SDS011;7827;53.594;9.938;2023-03-14T11:41:01;6.63;;;2.17;;
15451;SDS011;7827;53.594;9.938;2023-03-14T11:43:32;5.73;;;2.00;;
15451;SDS011;7827;53.594;9.938;2023-03-14T11:46:09;8.73;;;2.03;;
15451;SDS011;7827;53.594;9.938;2023-03-14T11:48:46;3.37;;;1.43;;
15451;SDS011;7827;53.594;9.938;2023-03-14T11:51:29;5.37;;;2.10;;
15451;SDS011;7827;53.594;9.938;2023-03-14T11:54:03;3.23;;;1.47;;
15451;SDS011;7827;53.594;9.938;2023-03-14T11:56:43;7.27;;;2.00;;
15451;SDS011;7827;53.594;9.938;2023-03-14T11:59:19;4.80;;;1.70;;
15451;SDS011;7827;53.594;9.938;2023-03-14T12:01:57;7.23;;;1.70;;
15451;SDS011;7827;53.594;9.938;2023-03-14T12:04:42;9.70;;;2.10;;
15451;SDS011;7827;53.594;9.938;2023-03-14T12:07:25;6.03;;;2.07;;
15451;SDS011;7827;53.594;9.938;2023-03-14T12:10:05;9.40;;;2.03;;
15451;SDS011;7827;53.594;9.938;2023-03-14T12:12:34;6.20;;;1.70;;
15451;SDS011;7827;53.594;9.938;2023-03-14T12:15:05;7.30;;;2.03;;
15451;SDS011;7827;53.594;9.938;2023-03-14T12:17:47;8.03;;;2.07;;
15451;SDS011;7827;53.594;9.938;2023-03-14T12:20:23;12.87;;;2.47;;
15451;SDS011;7827;53.594;9.938;2023-03-14T12:22:52;7.50;;;2.10;;
15451;SDS011;7827;53.594;9.938;2023-03-14T12:25:25;8.23;;;2.47;;
15451;SDS011;7827;53.594;9.938;2023-03-14T12:31:02;14.00;;;2.43;;
15451;SDS011;7827;53.594;9.938;2023-03-14T12:34:27;10.60;;;2.40;;
15451;SDS011;7827;53.594;9.938;2023-03-14T12:36:59;9.50;;;2.60;;
15451;SDS011;7827;53.594;9.938;2023-03-14T12:39:43;14.23;;;3.33;;
15451;SDS011;7827;53.594;9.938;2023-03-14T12:42:36;10.37;;;3.10;;
15451;SDS011;7827;53.594;9.938;2023-03-14T12:48:05;10.00;;;2.67;;
15451;SDS011;7827;53.594;9.938;2023-03-14T12:50:43;7.77;;;2.63;;
15451;SDS011;7827;53.594;9.938;2023-03-14T12:53:38;11.80;;;3.03;;
15451;SDS011;7827;53.594;9.938;2023-03-14T12:56:54;18.70;;;2.67;;
15451;SDS011;7827;53.594;9.938;2023-03-14T12:59:46;17.63;;;3.30;;
15451;SDS011;7827;53.594;9.938;2023-03-14T13:02:23;21.67;;;2.73;;
15451;SDS011;7827;53.594;9.938;2023-03-14T13:05:02;17.27;;;3.47;;
15451;SDS011;7827;53.594;9.938;2023-03-14T13:10:42;13.30;;;2.97;;
15451;SDS011;7827;53.594;9.938;2023-03-14T13:13:19;13.27;;;2.87;;
15451;SDS011;7827;53.594;9.938;2023-03-14T13:15:53;17.37;;;2.97;;
15451;SDS011;7827;53.594;9.938;2023-03-14T13:18:26;16.67;;;3.00;;
15451;SDS011;7827;53.594;9.938;2023-03-14T13:21:02;17.73;;;3.83;;
15451;SDS011;7827;53.594;9.938;2023-03-14T13:23:38;9.83;;;2.70;;
15451;SDS011;7827;53.594;9.938;2023-03-14T13:26:09;9.57;;;2.93;;
15451;SDS011;7827;53.594;9.938;2023-03-14T13:28:42;21.73;;;3.13;;
15451;SDS011;7827;53.594;9.938;2023-03-14T13:31:12;9.53;;;2.93;;
15451;SDS011;7827;53.594;9.938;2023-03-14T13:33:59;5.43;;;2.40;;
15451;SDS011;7827;53.594;9.938;2023-03-14T13:36:32;8.27;;;1.90;;
15451;SDS011;7827;53.594;9.938;2023-03-14T13:39:06;11.50;;;2.47;;
15451;SDS011;7827;53.594;9.938;2023-03-14T13:41:40;7.57;;;2.33;;
15451;SDS011;7827;53.594;9.938;2023-03-14T13:44:12;7.00;;;2.33;;
15451;SDS011;7827;53.594;9.938;2023-03-14T13:46:45;10.13;;;2.83;;
15451;SDS011;7827;53.594;9.938;2023-03-14T13:49:16;9.23;;;2.30;;
15451;SDS011;7827;53.594;9.938;2023-03-14T13:51:51;6.87;;;2.40;;
15451;SDS011;7827;53.594;9.938;2023-03-14T13:54:21;6.60;;;2.17;;
15451;SDS011;7827;53.594;9.938;2023-03-14T13:56:58;9.70;;;2.53;;
15451;SDS011;7827;53.594;9.938;2023-03-14T13:59:28;10.33;;;2.80;;
15451;SDS011;7827;53.594;9.938;2023-03-14T14:01:59;14.50;;;3.00;;
15451;SDS011;7827;53.594;9.938;2023-03-14T14:04:32;13.33;;;3.03;;
15451;SDS011;7827;53.594;9.938;2023-03-14T14:07:06;8.03;;;2.17;;
15451;SDS011;7827;53.594;9.938;2023-03-14T14:09:41;12.30;;;3.07;;
15451;SDS011;7827;53.594;9.938;2023-03-14T14:12:14;13.30;;;3.07;;
15451;SDS011;7827;53.594;9.938;2023-03-14T14:14:48;8.27;;;2.83;;
15451;SDS011;7827;53.594;9.938;2023-03-14T14:17:24;7.57;;;2.57;;
15451;SDS011;7827;53.594;9.938;2023-03-14T14:19:58;10.00;;;2.63;;
15451;SDS011;7827;53.594;9.938;2023-03-14T14:22:31;15.40;;;3.37;;
15451;SDS011;7827;53.594;9.938;2023-03-14T14:25:02;11.80;;;2.80;;
15451;SDS011;7827;53.594;9.938;2023-03-14T14:27:33;10.23;;;2.20;;
15451;SDS011;7827;53.594;9.938;2023-03-14T14:30:06;15.60;;;2.47;;
15451;SDS011;7827;53.594;9.938;2023-03-14T14:33:06;9.73;;;3.10;;
15451;SDS011;7827;53.594;9.938;2023-03-14T14:35:49;9.60;;;2.60;;
15451;SDS011;7827;53.594;9.938;2023-03-14T14:38:21;9.30;;;2.40;;
15451;SDS011;7827;53.594;9.938;2023-03-14T14:40:52;12.10;;;2.63;;
15451;SDS011;7827;53.594;9.938;2023-03-14T14:43:27;9.70;;;2.87;;
15451;SDS011;7827;53.594;9.938;2023-03-14T14:45:59;8.87;;;2.10;;
15451;SDS011;7827;53.594;9.938;2023-03-14T14:48:30;10.60;;;2.33;;
15451;SDS011;7827;53.594;9.938;2023-03-14T14:51:06;6.73;;;2.17;;
15451;SDS011;7827;53.594;9.938;2023-03-14T14:53:38;8.47;;;2.00;;
15451;SDS011;7827;53.594;9.938;2023-03-14T14:56:15;5.00;;;1.97;;
15451;SDS011;7827;53.594;9.938;2023-03-14T14:58:48;7.00;;;2.43;;
15451;SDS011;7827;53.594;9.938;2023-03-14T15:01:18;8.37;;;1.87;;
15451;SDS011;7827;53.594;9.938;2023-03-14T15:03:50;8.27;;;2.30;;
15451;SDS011;7827;53.594;9.938;2023-03-14T15:06:21;8.80;;;2.30;;
15451;SDS011;7827;53.594;9.938;2023-03-14T15:08:53;13.07;;;2.60;;
15451;SDS011;7827;53.594;9.938;2023-03-14T15:11:24;7.07;;;2.33;;
15451;SDS011;7827;53.594;9.938;2023-03-14T15:13:54;13.43;;;2.60;;
15451;SDS011;7827;53.594;9.938;2023-03-14T15:16:23;10.30;;;2.57;;
15451;SDS011;7827;53.594;9.938;2023-03-14T15:18:57;7.83;;;2.37;;
15451;SDS011;7827;53.594;9.938;2023-03-14T15:21:48;8.13;;;2.70;;
15451;SDS011;7827;53.594;9.938;2023-03-14T15:24:17;7.67;;;2.67;;
15451;SDS011;7827;53.594;9.938;2023-03-14T15:26:47;9.40;;;2.70;;
15451;SDS011;7827;53.594;9.938;2023-03-14T15:29:16;15.23;;;2.70;;
15451;SDS011;7827;53.594;9.938;2023-03-14T15:31:44;5.50;;;2.30;;
15451;SDS011;7827;53.594;9.938;2023-03-14T15:34:13;9.57;;;2.50;;
15451;SDS011;7827;53.594;9.938;2023-03-14T15:36:42;12.17;;;2.90;;
15451;SDS011;7827;53.594;9.938;2023-03-14T15:39:11;8.80;;;2.23;;
15451;SDS011;7827;53.594;9.938;2023-03-14T15:41:39;14.17;;;2.40;;
15451;SDS011;7827;53.594;9.938;2023-03-14T15:44:09;10.63;;;2.57;;
15451;SDS011;7827;53.594;9.938;2023-03-14T15:46:37;15.70;;;2.63;;
15451;SDS011;7827;53.594;9.938;2023-03-14T15:49:05;4.77;;;2.20;;